createdAt,value
2023-03-22T00:00:31.622Z,9.05
2023-03-22T00:03:05.802Z,9.50
2023-03-22T00:05:40.259Z,12.43
2023-03-22T00:08:13.699Z,10.50
2023-03-22T00:10:49.159Z,9.30
2023-03-22T00:13:22.293Z,11.98
2023-03-22T00:15:57.759Z,8.82
2023-03-22T00:18:31.001Z,9.45
2023-03-22T00:21:04.481Z,9.32
2023-03-22T00:23:37.680Z,10.95
2023-03-22T00:26:12.691Z,15.30
2023-03-22T00:28:45.665Z,9.13
2023-03-22T00:31:20.666Z,9.02
2023-03-22T00:33:53.574Z,9.82
2023-03-22T00:36:26.914Z,9.50
2023-03-22T00:38:59.827Z,8.65
2023-03-22T00:41:34.334Z,8.55
2023-03-22T00:44:07.086Z,13.95
2023-03-22T00:46:39.986Z,9.52
2023-03-22T00:49:12.857Z,8.52
2023-03-22T00:51:46.296Z,9.70
2023-03-22T00:54:19.436Z,9.38
2023-03-22T00:56:53.648Z,11.00
2023-03-22T00:59:28.607Z,10.30
2023-03-22T01:02:04.210Z,9.25
2023-03-22T01:04:37.304Z,8.43
2023-03-22T01:07:10.569Z,12.70
2023-03-22T01:09:43.486Z,10.05
2023-03-22T01:12:21.259Z,9.13
2023-03-22T01:14:54.193Z,9.25
2023-03-22T01:17:27.098Z,8.52
2023-03-22T01:20:00.226Z,9.77
2023-03-22T01:22:33.085Z,9.68
2023-03-22T01:25:06.674Z,10.15
2023-03-22T01:27:41.004Z,10.77
2023-03-22T01:30:14.799Z,15.13
2023-03-22T01:32:47.679Z,13.40
2023-03-22T01:35:22.373Z,12.30
2023-03-22T01:37:55.617Z,11.48
2023-03-22T01:40:28.889Z,12.75
2023-03-22T01:43:03.978Z,11.95
2023-03-22T01:45:40.394Z,10.68
2023-03-22T01:48:25.344Z,13.73
2023-03-22T01:51:07.281Z,11.13
2023-03-22T01:53:50.852Z,10.93
2023-03-22T01:56:28.910Z,10.18
2023-03-22T01:59:04.837Z,8.88
2023-03-22T02:01:54.609Z,14.35
2023-03-22T02:04:34.318Z,10.88
2023-03-22T02:07:15.813Z,11.30
2023-03-22T02:09:51.702Z,8.65
2023-03-22T02:12:38.665Z,8.80
2023-03-22T02:15:30.951Z,9.43
2023-03-22T02:18:32.593Z,13.27
2023-03-22T02:22:01.879Z,9.85
2023-03-22T02:25:06.884Z,8.75
2023-03-22T02:28:02.523Z,10.25
2023-03-22T02:30:56.970Z,8.25
2023-03-22T02:34:17.622Z,9.80
2023-03-22T02:39:46.242Z,10.13
2023-03-22T02:42:39.089Z,9.70
2023-03-22T02:45:17.092Z,10.50
2023-03-22T02:47:56.405Z,9.32
2023-03-22T02:50:34.154Z,10.90
2023-03-22T02:53:15.621Z,9.38
2023-03-22T02:55:55.241Z,10.73
2023-03-22T02:58:35.550Z,9.90
2023-03-22T03:01:13.260Z,9.98
2023-03-22T03:03:49.469Z,10.50
2023-03-22T03:06:25.754Z,11.43
2023-03-22T03:09:02.649Z,9.40
2023-03-22T03:11:36.937Z,11.45
2023-03-22T03:14:21.540Z,11.23
2023-03-22T03:17:06.268Z,13.18
2023-03-22T03:19:46.351Z,10.80
2023-03-22T03:22:35.864Z,11.25
2023-03-22T03:25:18.294Z,9.98
2023-03-22T03:28:01.812Z,10.85
2023-03-22T03:30:41.028Z,10.75
2023-03-22T03:33:19.398Z,11.23
2023-03-22T03:35:56.387Z,11.18
2023-03-22T03:38:33.180Z,10.95
2023-03-22T03:41:10.285Z,11.70
2023-03-22T03:43:47.214Z,11.90
2023-03-22T03:46:20.536Z,14.65
2023-03-22T03:48:54.460Z,11.77
2023-03-22T03:51:28.728Z,12.13
2023-03-22T03:54:01.562Z,12.70
2023-03-22T03:56:34.419Z,14.43
2023-03-22T03:59:09.191Z,12.85
2023-03-22T04:01:42.089Z,16.45
2023-03-22T04:04:26.924Z,15.07
2023-03-22T04:07:07.357Z,12.32
2023-03-22T04:09:43.749Z,15.65
2023-03-22T04:12:35.601Z,12.88
2023-03-22T04:15:30.234Z,16.17
2023-03-22T04:18:07.076Z,13.13
2023-03-22T04:20:41.987Z,12.63
2023-03-22T04:23:14.912Z,16.60
2023-03-22T04:25:50.301Z,14.93
2023-03-22T04:28:30.053Z,11.80
2023-03-22T04:31:04.606Z,13.40
2023-03-22T04:33:55.233Z,15.75
2023-03-22T04:36:40.823Z,16.77
2023-03-22T04:39:23.069Z,11.70
2023-03-22T04:42:05.665Z,14.50
2023-03-22T04:44:39.840Z,12.32
2023-03-22T04:47:15.046Z,16.80
2023-03-22T04:49:48.256Z,14.93
2023-03-22T04:52:23.249Z,13.07
2023-03-22T04:54:59.153Z,14.73
2023-03-22T04:57:32.610Z,12.77
2023-03-22T05:00:08.787Z,12.63
2023-03-22T05:02:44.382Z,13.85
2023-03-22T05:05:26.873Z,12.60
2023-03-22T05:08:00.753Z,22.95
2023-03-22T05:10:33.748Z,14.25
2023-03-22T05:13:06.741Z,14.10
2023-03-22T05:15:45.976Z,14.00
2023-03-22T05:18:25.081Z,13.18
2023-03-22T05:20:58.742Z,11.73
2023-03-22T05:23:31.600Z,14.15
2023-03-22T05:26:05.471Z,13.32
2023-03-22T05:28:39.500Z,11.23
2023-03-22T05:31:21.774Z,13.10
2023-03-22T05:34:08.201Z,11.23
2023-03-22T05:36:42.612Z,12.85
2023-03-22T05:39:35.770Z,10.52
2023-03-22T05:42:08.824Z,14.60
2023-03-22T05:44:42.532Z,11.85
2023-03-22T05:47:18.735Z,14.05
2023-03-22T05:50:01.796Z,12.90
2023-03-22T05:52:36.741Z,13.98
2023-03-22T05:55:22.367Z,14.40
2023-03-22T05:57:59.746Z,11.00
2023-03-22T06:00:33.548Z,13.95
2023-03-22T06:03:27.709Z,12.55
2023-03-22T06:06:17.312Z,11.63
2023-03-22T06:09:17.726Z,14.35
2023-03-22T06:11:55.233Z,10.57
2023-03-22T06:14:29.319Z,10.38
2023-03-22T06:17:14.173Z,10.65
2023-03-22T06:19:47.556Z,12.95
2023-03-22T06:22:23.317Z,11.55
2023-03-22T06:24:56.537Z,11.35
2023-03-22T06:27:39.258Z,15.15
2023-03-22T06:30:13.052Z,12.00
2023-03-22T06:33:05.243Z,11.35
2023-03-22T06:35:41.641Z,9.02
2023-03-22T06:38:19.767Z,11.25
2023-03-22T06:40:53.192Z,10.30
2023-03-22T06:43:26.454Z,15.27
2023-03-22T06:46:12.000Z,12.15
2023-03-22T06:48:52.129Z,8.77
2023-03-22T06:51:25.038Z,11.32
2023-03-22T06:53:59.481Z,11.77
2023-03-22T06:56:32.503Z,9.77
2023-03-22T06:59:07.226Z,12.40
2023-03-22T07:01:40.314Z,11.43
2023-03-22T07:04:13.346Z,11.98
2023-03-22T07:06:46.810Z,8.35
2023-03-22T07:09:24.059Z,11.25
2023-03-22T07:11:59.759Z,10.20
2023-03-22T07:14:32.735Z,10.73
2023-03-22T07:17:14.427Z,11.00
2023-03-22T07:19:47.412Z,9.82
2023-03-22T07:22:22.269Z,10.63
2023-03-22T07:25:01.565Z,9.13
2023-03-22T07:27:37.453Z,11.38
2023-03-22T07:30:11.657Z,9.20
2023-03-22T07:32:49.442Z,10.30
2023-03-22T07:35:22.254Z,8.85
2023-03-22T07:37:56.110Z,11.35
2023-03-22T07:40:36.286Z,12.80
2023-03-22T07:43:12.300Z,7.13
2023-03-22T07:46:08.061Z,12.27
2023-03-22T07:48:59.962Z,12.38
2023-03-22T07:51:52.807Z,12.18
2023-03-22T07:54:33.333Z,22.95
2023-03-22T07:57:09.603Z,8.55
2023-03-22T07:59:48.380Z,10.27
2023-03-22T08:02:21.734Z,9.63
2023-03-22T08:04:59.417Z,11.30
2023-03-22T08:07:42.449Z,8.23
2023-03-22T08:10:17.377Z,7.47
2023-03-22T08:12:51.741Z,6.28
2023-03-22T08:15:29.533Z,6.13
2023-03-22T08:18:02.481Z,7.80
2023-03-22T08:20:42.441Z,7.97
2023-03-22T08:23:28.798Z,10.30
2023-03-22T08:26:26.200Z,7.40
2023-03-22T08:29:02.724Z,8.57
2023-03-22T08:31:38.852Z,6.28
2023-03-22T08:34:11.771Z,4.80
2023-03-22T08:36:45.034Z,5.55
2023-03-22T08:39:18.178Z,8.00
2023-03-22T08:41:58.796Z,4.90
2023-03-22T08:44:34.603Z,6.32
2023-03-22T08:47:09.249Z,6.05
2023-03-22T08:49:43.569Z,8.60
2023-03-22T08:52:29.108Z,10.07
2023-03-22T08:55:24.860Z,7.03
2023-03-22T08:58:19.623Z,4.78
2023-03-22T09:01:13.892Z,7.03
2023-03-22T09:04:10.720Z,6.88
2023-03-22T09:06:45.690Z,3.95
2023-03-22T09:09:19.282Z,6.88
2023-03-22T09:11:56.495Z,5.22
2023-03-22T09:14:29.662Z,4.15
2023-03-22T09:17:06.251Z,6.30
2023-03-22T09:19:39.266Z,5.72
2023-03-22T09:22:12.865Z,5.18
2023-03-22T09:24:51.863Z,6.10
2023-03-22T09:27:25.023Z,6.07
2023-03-22T09:29:58.031Z,4.55
2023-03-22T09:32:32.209Z,3.15
2023-03-22T09:35:08.900Z,7.55
2023-03-22T09:37:53.513Z,5.45
2023-03-22T09:40:29.799Z,3.28
2023-03-22T09:43:06.257Z,1.98
2023-03-22T09:45:44.304Z,2.33
2023-03-22T09:48:22.343Z,4.20
2023-03-22T09:50:57.034Z,1.77
2023-03-22T09:53:32.925Z,2.47
2023-03-22T09:56:12.792Z,1.70
2023-03-22T09:58:51.592Z,4.70
2023-03-22T10:01:35.450Z,3.60
2023-03-22T10:04:27.327Z,3.50
2023-03-22T10:07:12.209Z,1.92
2023-03-22T10:09:54.847Z,1.88
2023-03-22T10:12:31.435Z,2.20
2023-03-22T10:15:07.868Z,4.00
2023-03-22T10:17:45.746Z,3.13
2023-03-22T10:20:42.368Z,3.35
2023-03-22T10:23:19.417Z,0.85
2023-03-22T10:25:53.907Z,1.52
2023-03-22T10:28:32.902Z,1.38
2023-03-22T10:31:06.869Z,2.03
2023-03-22T10:33:50.227Z,2.60
2023-03-22T10:36:28.655Z,1.33
2023-03-22T10:39:05.543Z,3.72
2023-03-22T10:41:39.113Z,2.75
2023-03-22T10:44:18.278Z,4.78
2023-03-22T10:46:53.351Z,2.75
2023-03-22T10:49:31.728Z,1.77
2023-03-22T10:52:18.401Z,1.58
2023-03-22T10:54:51.631Z,2.70
2023-03-22T10:57:25.807Z,1.80
2023-03-22T10:59:58.964Z,4.57
2023-03-22T11:02:33.793Z,2.72
2023-03-22T11:05:08.138Z,2.15
2023-03-22T11:07:45.485Z,5.32
2023-03-22T11:10:31.423Z,2.33
2023-03-22T11:13:21.497Z,3.15
2023-03-22T11:15:59.945Z,3.53
2023-03-22T11:18:34.931Z,3.08
2023-03-22T11:21:11.153Z,3.17
2023-03-22T11:23:55.422Z,3.38
2023-03-22T11:26:32.136Z,2.42
2023-03-22T11:29:14.284Z,1.52
2023-03-22T11:31:57.356Z,1.50
2023-03-22T11:34:32.105Z,2.47
2023-03-22T11:37:09.548Z,7.90
2023-03-22T11:39:48.507Z,2.05
2023-03-22T11:42:22.387Z,1.70
2023-03-22T11:44:57.134Z,2.72
2023-03-22T11:47:37.880Z,7.63
2023-03-22T11:50:26.332Z,2.67
2023-03-22T11:53:02.800Z,2.97
2023-03-22T11:55:37.931Z,4.22
2023-03-22T11:58:26.185Z,3.75
2023-03-22T12:01:03.195Z,2.17
2023-03-22T12:03:39.832Z,3.75
2023-03-22T12:06:22.134Z,4.38
2023-03-22T12:08:59.833Z,1.10
2023-03-22T12:11:38.917Z,3.08
2023-03-22T12:14:20.418Z,1.83
2023-03-22T12:16:59.105Z,3.05
2023-03-22T12:19:45.099Z,2.05
2023-03-22T12:22:22.017Z,2.97
2023-03-22T12:24:55.194Z,1.40
2023-03-22T12:27:34.301Z,1.30
2023-03-22T12:30:13.855Z,2.25
2023-03-22T12:32:51.697Z,1.40
2023-03-22T12:35:28.363Z,2.28
2023-03-22T12:38:08.196Z,1.80
2023-03-22T12:40:43.175Z,2.03
2023-03-22T12:43:25.855Z,5.38
2023-03-22T12:46:02.274Z,2.60
2023-03-22T12:48:39.845Z,2.92
2023-03-22T12:51:15.547Z,2.05
2023-03-22T12:53:52.163Z,1.98
2023-03-22T12:56:29.972Z,1.60
2023-03-22T12:59:07.665Z,5.15
2023-03-22T13:01:47.646Z,5.45
2023-03-22T13:04:51.305Z,3.05
2023-03-22T13:07:54.599Z,1.60
2023-03-22T13:11:00.472Z,2.80
2023-03-22T13:13:42.671Z,8.98
2023-03-22T13:16:22.604Z,1.95
2023-03-22T13:19:03.836Z,4.38
2023-03-22T13:21:39.833Z,1.58
2023-03-22T13:24:24.232Z,2.45
2023-03-22T13:27:00.256Z,2.22
2023-03-22T13:29:37.733Z,2.25
2023-03-22T13:32:30.655Z,1.85
2023-03-22T13:35:03.922Z,0.85
2023-03-22T13:37:51.320Z,1.05
2023-03-22T13:40:31.230Z,2.10
2023-03-22T13:43:23.607Z,0.93
2023-03-22T13:46:08.762Z,1.85
2023-03-22T13:48:55.384Z,3.00
2023-03-22T13:51:32.055Z,7.97
2023-03-22T13:54:09.252Z,1.02
2023-03-22T13:56:56.528Z,1.23
2023-03-22T13:59:33.906Z,1.80
2023-03-22T14:02:18.477Z,1.20
2023-03-22T14:04:56.131Z,2.15
2023-03-22T14:07:34.575Z,2.72
2023-03-22T14:10:15.455Z,1.38
2023-03-22T14:12:52.624Z,0.93
2023-03-22T14:15:28.154Z,2.47
2023-03-22T14:18:04.668Z,2.22
2023-03-22T14:20:41.063Z,1.65
